createdAt,value
2018-01-12T00:00:42.154Z,8.93
2018-01-12T00:02:19.911Z,8.91
2018-01-12T00:03:56.403Z,9.03
2018-01-12T00:05:32.854Z,9.18
2018-01-12T00:07:09.817Z,9.34
2018-01-12T00:08:46.799Z,9.43
2018-01-12T00:10:23.947Z,9.45
2018-01-12T00:12:00.528Z,9.56
2018-01-12T00:13:37.127Z,9.72
2018-01-12T00:15:16.219Z,9.75
2018-01-12T00:16:52.880Z,9.71
2018-01-12T00:18:29.668Z,9.74
2018-01-12T00:20:06.318Z,9.88
2018-01-12T00:21:42.746Z,9.96
2018-01-12T00:23:21.054Z,9.95
2018-01-12T00:24:57.480Z,9.96
2018-01-12T00:26:34.566Z,10.02
2018-01-12T00:28:11.233Z,10.02
2018-01-12T00:29:47.490Z,10.02
2018-01-12T00:31:25.664Z,10.07
2018-01-12T00:33:02.886Z,10.15
2018-01-12T00:34:39.487Z,10.05
2018-01-12T00:36:15.970Z,9.98
2018-01-12T00:37:54.937Z,9.97
2018-01-12T00:39:32.177Z,10.01
2018-01-12T00:41:09.163Z,10.01
2018-01-12T00:42:45.525Z,9.95
2018-01-12T00:44:21.930Z,9.87
2018-01-12T00:45:58.524Z,9.75
2018-01-12T00:47:35.289Z,9.62
2018-01-12T00:49:11.685Z,9.54
2018-01-12T00:50:48.226Z,9.52
2018-01-12T00:52:25.318Z,9.57
2018-01-12T00:54:02.137Z,9.65
2018-01-12T00:55:38.542Z,9.73
2018-01-12T00:57:15.091Z,9.80
2018-01-12T00:58:51.477Z,9.96
2018-01-12T01:00:30.237Z,10.10
2018-01-12T01:02:07.490Z,10.23
2018-01-12T01:03:45.795Z,10.36
2018-01-12T01:05:22.854Z,10.45
2018-01-12T01:07:00.107Z,10.46
2018-01-12T01:08:37.487Z,10.35
2018-01-12T01:10:14.119Z,10.13
2018-01-12T01:11:50.471Z,10.09
2018-01-12T01:13:27.272Z,10.18
2018-01-12T01:15:04.859Z,10.16
2018-01-12T01:16:41.146Z,10.01
2018-01-12T01:18:17.557Z,9.88
2018-01-12T01:19:55.080Z,9.83
2018-01-12T01:21:31.494Z,9.70
2018-01-12T01:23:08.305Z,9.61
2018-01-12T01:24:44.628Z,9.56
2018-01-12T01:26:21.386Z,9.53
2018-01-12T01:27:57.669Z,9.43
2018-01-12T01:29:35.104Z,9.27
2018-01-12T01:31:11.422Z,9.10
2018-01-12T01:32:48.926Z,9.08
2018-01-12T01:34:25.302Z,9.01
2018-01-12T01:36:01.657Z,8.83
2018-01-12T01:37:38.650Z,8.69
2018-01-12T01:39:15.655Z,8.71
2018-01-12T01:40:52.390Z,8.77
2018-01-12T01:42:29.026Z,8.84
2018-01-12T01:44:06.884Z,8.93
2018-01-12T01:45:45.274Z,9.08
2018-01-12T01:47:21.627Z,9.19
2018-01-12T01:48:58.035Z,9.27
2018-01-12T01:50:34.346Z,9.33
2018-01-12T01:52:11.519Z,9.35
2018-01-12T01:53:48.518Z,9.17
2018-01-12T01:55:25.681Z,8.99
2018-01-12T01:57:01.887Z,8.79
2018-01-12T01:58:38.606Z,8.60
2018-01-12T02:00:16.590Z,8.54
2018-01-12T02:01:53.374Z,8.53
2018-01-12T02:03:29.707Z,8.64
2018-01-12T02:05:07.071Z,8.72
2018-01-12T02:06:46.076Z,8.81
2018-01-12T02:08:24.057Z,8.80
2018-01-12T02:10:00.628Z,8.79
2018-01-12T02:11:38.571Z,8.74
2018-01-12T02:13:15.004Z,8.63
2018-01-12T02:14:51.341Z,8.57
2018-01-12T02:16:29.357Z,8.64
2018-01-12T02:18:06.962Z,8.56
2018-01-12T02:19:43.936Z,8.53
2018-01-12T02:21:20.279Z,8.58
2018-01-12T02:22:57.435Z,8.58
2018-01-12T02:24:35.071Z,8.62
2018-01-12T02:26:11.673Z,8.62
2018-01-12T02:27:47.940Z,8.66
2018-01-12T02:29:26.191Z,8.74
2018-01-12T02:31:14.777Z,8.77
2018-01-12T02:32:55.848Z,8.80
2018-01-12T02:34:33.754Z,8.82
2018-01-12T02:36:13.437Z,8.81
2018-01-12T02:37:52.362Z,8.74
2018-01-12T02:39:30.921Z,8.65
2018-01-12T02:41:08.950Z,8.64
2018-01-12T02:42:47.967Z,8.65
2018-01-12T02:44:24.971Z,8.65
2018-01-12T02:46:05.395Z,8.64
2018-01-12T02:47:44.587Z,8.63
2018-01-12T02:49:25.214Z,8.57
2018-01-12T02:51:03.577Z,8.58
2018-01-12T02:52:40.116Z,8.55
2018-01-12T02:54:18.547Z,8.54
2018-01-12T02:55:56.370Z,8.60
2018-01-12T02:57:33.376Z,8.64
2018-01-12T02:59:09.779Z,8.78
2018-01-12T03:01:03.231Z,8.91
2018-01-12T03:02:40.187Z,8.95
2018-01-12T03:04:18.000Z,9.13
2018-01-12T03:05:56.392Z,9.06
2018-01-12T03:07:32.742Z,9.05
2018-01-12T03:09:09.983Z,9.11
2018-01-12T03:10:46.296Z,9.17
2018-01-12T03:12:22.664Z,9.28
2018-01-12T03:13:59.031Z,9.32
2018-01-12T03:15:37.040Z,9.36
2018-01-12T03:17:13.619Z,9.43
2018-01-12T03:18:50.313Z,9.54
2018-01-12T03:20:26.734Z,9.68
2018-01-12T03:22:03.462Z,9.78
2018-01-12T03:23:40.558Z,10.02
2018-01-12T03:25:17.001Z,10.15
2018-01-12T03:26:53.274Z,10.11
2018-01-12T03:28:29.605Z,10.29
2018-01-12T03:30:07.605Z,10.34
2018-01-12T03:31:44.019Z,10.44
2018-01-12T03:33:20.588Z,10.55
2018-01-12T03:34:57.503Z,10.72
2018-01-12T03:36:33.809Z,10.62
2018-01-12T03:38:10.512Z,10.34
2018-01-12T03:39:46.880Z,9.98
2018-01-12T03:41:23.835Z,9.71
2018-01-12T03:43:00.158Z,9.35
2018-01-12T03:44:36.499Z,9.06
2018-01-12T03:46:13.401Z,8.85
2018-01-12T03:47:50.267Z,8.59
2018-01-12T03:49:27.853Z,8.54
2018-01-12T03:51:04.955Z,8.39
2018-01-12T03:52:41.154Z,8.37
2018-01-12T03:54:18.953Z,8.34
2018-01-12T03:55:56.172Z,8.33
2018-01-12T03:57:32.482Z,8.39
2018-01-12T03:59:08.868Z,8.31
2018-01-12T04:00:47.284Z,8.31
2018-01-12T04:02:23.798Z,8.35
2018-01-12T04:04:00.183Z,8.45
2018-01-12T04:05:37.180Z,8.51
2018-01-12T04:07:15.358Z,8.52
2018-01-12T04:08:52.882Z,8.54
2018-01-12T04:10:29.371Z,8.53
2018-01-12T04:12:06.019Z,8.40
2018-01-12T04:13:42.651Z,8.24
2018-01-12T04:15:20.056Z,8.07
2018-01-12T04:16:56.838Z,8.08
2018-01-12T04:18:34.150Z,8.09
2018-01-12T04:20:10.963Z,8.15
2018-01-12T04:21:47.438Z,8.14
2018-01-12T04:23:23.846Z,8.16
2018-01-12T04:25:01.159Z,8.25
2018-01-12T04:26:38.370Z,8.29
2018-01-12T04:28:15.118Z,8.30
2018-01-12T04:29:51.765Z,8.39
2018-01-12T04:31:28.037Z,8.49
2018-01-12T04:33:04.835Z,8.67
2018-01-12T04:34:42.142Z,8.81
2018-01-12T04:36:18.778Z,8.90
2018-01-12T04:37:55.192Z,8.86
2018-01-12T04:39:32.439Z,8.80
2018-01-12T04:41:08.815Z,8.73
2018-01-12T04:42:46.732Z,8.51
2018-01-12T04:44:23.295Z,8.39
2018-01-12T04:46:01.054Z,8.37
2018-01-12T04:47:37.774Z,8.28
2018-01-12T04:49:14.142Z,8.26
2018-01-12T04:50:50.654Z,8.25
2018-01-12T04:52:28.222Z,8.31
2018-01-12T04:54:05.057Z,8.36
2018-01-12T04:55:41.834Z,8.26
2018-01-12T04:57:18.137Z,8.11
2018-01-12T04:58:55.165Z,8.17
2018-01-12T05:00:31.595Z,8.30
2018-01-12T05:02:08.782Z,8.46
2018-01-12T05:03:45.880Z,8.55
2018-01-12T05:05:22.583Z,8.62
2018-01-12T05:06:58.840Z,8.61
2018-01-12T05:08:35.143Z,8.66
2018-01-12T05:10:11.492Z,8.68
2018-01-12T05:11:48.360Z,8.63
2018-01-12T05:13:25.295Z,8.56
2018-01-12T05:15:01.680Z,8.58
2018-01-12T05:16:38.512Z,8.64
2018-01-12T05:18:15.986Z,8.63
2018-01-12T05:19:53.101Z,8.64
2018-01-12T05:21:30.037Z,8.69
2018-01-12T05:23:06.455Z,8.67
2018-01-12T05:24:42.735Z,8.63
2018-01-12T05:26:19.038Z,8.65
2018-01-12T05:27:56.349Z,8.73
2018-01-12T05:29:32.725Z,8.80
2018-01-12T05:31:09.248Z,8.87
2018-01-12T05:32:46.449Z,8.91
2018-01-12T05:34:23.362Z,8.97
2018-01-12T05:36:00.900Z,9.07
2018-01-12T05:37:37.903Z,9.17
2018-01-12T05:39:14.218Z,9.27
2018-01-12T05:40:50.507Z,9.19
2018-01-12T05:42:27.049Z,9.05
2018-01-12T05:44:04.629Z,8.92
2018-01-12T05:45:41.411Z,8.68
2018-01-12T05:47:18.436Z,8.52
2018-01-12T05:48:54.962Z,8.45
2018-01-12T05:50:31.326Z,8.33
2018-01-12T05:52:08.287Z,8.23
2018-01-12T05:53:44.526Z,8.22
2018-01-12T05:55:21.306Z,8.26
2018-01-12T05:56:58.370Z,8.37
2018-01-12T05:58:34.586Z,8.47
2018-01-12T06:00:10.898Z,8.57
2018-01-12T06:05:01.660Z,8.71
2018-01-12T06:06:38.762Z,8.78
2018-01-12T06:08:15.663Z,8.82
2018-01-12T06:09:52.003Z,8.94
2018-01-12T06:11:28.207Z,8.87
2018-01-12T06:13:04.460Z,8.91
2018-01-12T06:14:41.080Z,8.90
2018-01-12T06:16:17.515Z,8.73
2018-01-12T06:17:53.911Z,8.59
2018-01-12T06:19:30.253Z,8.51
2018-01-12T06:21:07.591Z,8.61
2018-01-12T06:22:43.875Z,8.73
2018-01-12T06:24:20.181Z,8.78
2018-01-12T06:25:57.418Z,8.80
2018-01-12T06:27:34.887Z,8.79
2018-01-12T06:29:11.196Z,8.84
2018-01-12T06:30:48.306Z,8.72
2018-01-12T06:32:25.005Z,8.48
2018-01-12T06:34:01.996Z,8.38
2018-01-12T06:35:38.566Z,8.27
2018-01-12T06:37:15.086Z,8.11
2018-01-12T06:38:52.131Z,8.01
2018-01-12T06:40:28.639Z,8.07
2018-01-12T06:42:04.892Z,8.19
2018-01-12T06:43:41.233Z,8.27
2018-01-12T06:45:19.817Z,8.33
2018-01-12T06:46:56.755Z,8.38
2018-01-12T06:48:33.824Z,8.32
2018-01-12T06:50:10.024Z,8.27
2018-01-12T06:51:46.253Z,8.27
2018-01-12T06:53:23.682Z,8.26
2018-01-12T06:54:59.990Z,8.32
2018-01-12T06:56:36.183Z,8.38
2018-01-12T06:58:13.268Z,8.38
2018-01-12T06:59:49.918Z,8.36
2018-01-12T07:01:26.542Z,8.27
2018-01-12T07:03:04.087Z,8.40
2018-01-12T07:04:40.378Z,8.48
2018-01-12T07:06:17.880Z,8.55
2018-01-12T07:07:54.142Z,8.54
2018-01-12T07:09:30.525Z,8.66
2018-01-12T07:11:06.746Z,8.87
2018-01-12T07:12:43.577Z,9.09
2018-01-12T07:14:19.868Z,9.30
2018-01-12T07:15:56.616Z,9.35
2018-01-12T07:17:33.819Z,9.32
2018-01-12T07:19:11.219Z,9.30
2018-01-12T07:23:05.591Z,9.38
2018-01-12T07:24:42.237Z,9.13
2018-01-12T07:26:18.672Z,9.17
2018-01-12T07:27:55.013Z,9.25
2018-01-12T07:29:31.296Z,9.33
2018-01-12T07:31:08.135Z,9.40
2018-01-12T07:32:44.417Z,9.51
2018-01-12T07:34:21.753Z,9.65
2018-01-12T07:35:58.020Z,9.66
2018-01-12T07:37:34.717Z,9.56
2018-01-12T07:39:11.242Z,9.46
2018-01-12T07:40:48.449Z,9.41
2018-01-12T07:42:24.683Z,9.34
2018-01-12T07:44:02.137Z,9.33
2018-01-12T07:45:38.418Z,9.39
2018-01-12T07:47:14.661Z,9.29
2018-01-12T07:48:50.852Z,9.18
2018-01-12T07:50:27.628Z,9.11
2018-01-12T07:52:04.798Z,9.22
2018-01-12T07:53:41.051Z,9.31
2018-01-12T07:55:17.399Z,9.24
2018-01-12T07:56:54.027Z,9.12
2018-01-12T07:58:30.273Z,9.11
2018-01-12T08:00:06.662Z,9.11
2018-01-12T08:03:32.494Z,9.13
2018-01-12T08:05:09.539Z,9.27
2018-01-12T08:06:45.779Z,9.34
2018-01-12T08:08:22.094Z,9.33
2018-01-12T08:09:58.849Z,9.30
2018-01-12T08:11:35.943Z,9.33
2018-01-12T08:13:12.396Z,9.44
2018-01-12T08:14:48.703Z,9.55
2018-01-12T08:16:25.693Z,9.64
2018-01-12T08:18:01.993Z,9.77
2018-01-12T08:19:38.323Z,9.73
2018-01-12T08:21:14.573Z,9.08
2018-01-12T08:22:51.271Z,8.73
2018-01-12T08:24:27.615Z,8.56
2018-01-12T08:26:05.481Z,8.56
2018-01-12T08:27:41.816Z,8.57
2018-01-12T08:29:18.618Z,8.56
2018-01-12T08:30:55.947Z,8.89
2018-01-12T08:32:33.067Z,9.43
2018-01-12T08:34:09.342Z,9.84
2018-01-12T08:35:47.517Z,10.08
2018-01-12T08:37:24.013Z,10.18
2018-01-12T08:39:00.369Z,10.01
2018-01-12T08:40:36.762Z,9.87
2018-01-12T08:42:12.930Z,9.85
2018-01-12T08:43:49.243Z,9.85
2018-01-12T08:45:27.379Z,9.84
2018-01-12T08:47:04.407Z,9.85
2018-01-12T08:48:41.045Z,9.86
2018-01-12T08:50:17.354Z,9.95
2018-01-12T08:51:53.686Z,10.15
2018-01-12T08:53:30.843Z,10.27
2018-01-12T08:55:08.420Z,10.25
2018-01-12T08:56:45.618Z,9.78
2018-01-12T08:58:21.911Z,9.43
2018-01-12T08:59:58.278Z,9.26
2018-01-12T09:01:35.311Z,8.94
2018-01-12T09:03:11.598Z,8.83
2018-01-12T09:04:47.880Z,8.83
2018-01-12T09:06:24.348Z,8.82
2018-01-12T09:08:01.004Z,8.80
2018-01-12T09:09:37.508Z,8.58
2018-01-12T09:11:13.730Z,8.64
2018-01-12T09:12:50.013Z,9.01
2018-01-12T09:14:39.847Z,9.45
2018-01-12T09:16:28.615Z,9.68
2018-01-12T09:18:09.384Z,10.13
2018-01-12T09:19:51.047Z,10.36
2018-01-12T09:21:27.529Z,10.35
2018-01-12T09:23:13.471Z,10.26
2018-01-12T09:24:49.842Z,9.86
2018-01-12T09:26:27.359Z,9.97
2018-01-12T09:28:03.820Z,9.72
2018-01-12T09:29:40.179Z,9.70
2018-01-12T09:31:17.950Z,9.78
2018-01-12T09:32:54.389Z,9.80
2018-01-12T09:34:47.587Z,9.96
2018-01-12T09:36:24.332Z,9.93
2018-01-12T09:38:28.690Z,10.07
2018-01-12T09:40:18.097Z,9.88
2018-01-12T09:41:55.248Z,9.91
2018-01-12T09:43:31.593Z,10.17
2018-01-12T09:45:08.795Z,10.11
2018-01-12T09:46:45.494Z,10.27
2018-01-12T09:48:31.770Z,10.65
2018-01-12T09:50:08.272Z,10.68
2018-01-12T09:51:44.986Z,10.44
2018-01-12T09:53:21.320Z,9.87
2018-01-12T09:54:58.350Z,9.58
2018-01-12T09:56:34.708Z,9.32
2018-01-12T09:58:10.968Z,9.46
2018-01-12T09:59:48.663Z,9.67
2018-01-12T10:01:27.387Z,10.05
2018-01-12T10:03:04.546Z,10.32
2018-01-12T10:04:41.221Z,10.22
2018-01-12T10:06:18.560Z,10.09
2018-01-12T10:08:05.809Z,9.99
2018-01-12T10:09:49.167Z,9.73
2018-01-12T10:11:26.022Z,9.61
2018-01-12T10:13:02.314Z,9.51
2018-01-12T10:14:38.739Z,9.45
2018-01-12T10:16:15.498Z,9.31
2018-01-12T10:17:55.806Z,9.21
2018-01-12T10:19:33.050Z,9.35
2018-01-12T10:21:09.753Z,9.06
2018-01-12T10:22:47.963Z,9.02
2018-01-12T10:24:24.777Z,9.17
2018-01-12T10:26:01.115Z,9.42
2018-01-12T10:27:37.575Z,9.63
2018-01-12T10:29:23.480Z,9.99
2018-01-12T10:31:02.279Z,10.06
2018-01-12T10:32:46.499Z,10.10
2018-01-12T10:34:31.745Z,10.07
2018-01-12T10:36:09.435Z,9.96
2018-01-12T10:37:46.577Z,9.99
2018-01-12T10:41:02.242Z,10.15
2018-01-12T10:42:38.895Z,10.13
2018-01-12T10:44:15.405Z,9.93
2018-01-12T10:45:57.060Z,9.54
2018-01-12T10:47:38.212Z,9.35
2018-01-12T10:49:24.808Z,9.72
2018-01-12T10:51:06.934Z,9.82
2018-01-12T10:52:49.566Z,9.93
2018-01-12T10:54:26.407Z,10.04
2018-01-12T10:56:03.030Z,10.04
2018-01-12T10:57:39.570Z,10.10
2018-01-12T10:59:15.950Z,10.15
2018-01-12T11:00:53.933Z,10.04
2018-01-12T11:02:30.358Z,9.70
2018-01-12T11:04:07.630Z,9.89
2018-01-12T11:05:44.043Z,10.18
2018-01-12T11:07:20.751Z,10.49
2018-01-12T11:08:57.037Z,10.72
2018-01-12T11:10:33.555Z,10.83
2018-01-12T11:12:10.756Z,10.80
2018-01-12T11:15:32.344Z,10.40
2018-01-12T11:17:09.435Z,10.48
2018-01-12T11:18:48.257Z,10.50
2018-01-12T11:20:25.341Z,10.38
2018-01-12T11:22:02.995Z,10.31
2018-01-12T11:23:40.047Z,10.07
2018-01-12T11:25:18.247Z,10.07
2018-01-12T11:26:55.275Z,10.00
2018-01-12T11:28:32.050Z,10.26
2018-01-12T11:30:08.480Z,10.53
2018-01-12T11:31:47.093Z,10.81
2018-01-12T11:33:24.247Z,11.00
2018-01-12T11:35:00.663Z,11.11
2018-01-12T11:36:39.365Z,11.16
2018-01-12T11:38:16.559Z,11.18
2018-01-12T11:39:54.804Z,11.19
2018-01-12T11:41:31.230Z,11.13
2018-01-12T11:43:08.792Z,10.97
2018-01-12T11:44:45.333Z,10.94
2018-01-12T11:46:23.572Z,10.98
2018-01-12T11:47:59.999Z,11.00
2018-01-12T11:49:37.465Z,11.04
2018-01-12T11:51:14.561Z,11.03
2018-01-12T11:52:51.500Z,11.17
2018-01-12T11:54:27.907Z,11.15
2018-01-12T11:56:04.264Z,10.82
2018-01-12T11:57:40.998Z,10.84
2018-01-12T11:59:17.796Z,11.09
2018-01-12T12:00:54.498Z,11.24
2018-01-12T12:02:30.848Z,11.40
2018-01-12T12:04:07.374Z,11.30
2018-01-12T12:05:45.258Z,11.06
2018-01-12T12:07:22.394Z,10.92
2018-01-12T12:08:58.763Z,10.62
2018-01-12T12:10:35.165Z,10.41
2018-01-12T12:12:21.458Z,10.32
2018-01-12T12:13:59.466Z,10.29
2018-01-12T12:15:36.087Z,10.22
2018-01-12T12:17:12.557Z,10.22
2018-01-12T12:18:51.791Z,10.29
2018-01-12T12:20:28.232Z,10.31
2018-01-12T12:22:05.323Z,10.31
2018-01-12T12:23:42.421Z,10.31
2018-01-12T12:26:58.619Z,10.35
2018-01-12T12:28:34.911Z,10.48
2018-01-12T12:30:11.175Z,10.49
2018-01-12T12:31:49.059Z,10.36
2018-01-12T12:33:25.409Z,10.34
2018-01-12T12:35:02.601Z,10.37
2018-01-12T12:36:39.303Z,10.23
2018-01-12T12:38:16.093Z,10.19
2018-01-12T12:39:53.198Z,10.10
2018-01-12T12:41:29.678Z,10.04
2018-01-12T12:43:08.859Z,10.01
2018-01-12T12:44:46.432Z,10.01
2018-01-12T12:46:23.221Z,10.02
2018-01-12T12:47:59.740Z,10.14
2018-01-12T12:49:37.059Z,10.17
2018-01-12T12:51:13.882Z,10.27
2018-01-12T12:52:50.915Z,10.24
2018-01-12T12:54:27.405Z,10.09
2018-01-12T12:56:03.782Z,10.16
2018-01-12T12:57:41.467Z,10.42
2018-01-12T12:59:17.850Z,10.61
2018-01-12T13:00:54.782Z,10.76
2018-01-12T13:02:31.265Z,10.89
2018-01-12T13:04:08.984Z,10.82
2018-01-12T13:05:46.163Z,10.88
2018-01-12T13:07:24.380Z,10.84
2018-01-12T13:09:00.799Z,10.78
2018-01-12T13:10:38.557Z,10.65
2018-01-12T13:12:14.864Z,10.64
2018-01-12T13:13:51.520Z,10.73
2018-01-12T13:15:28.904Z,10.49
2018-01-12T13:17:05.993Z,10.08
2018-01-12T13:18:42.463Z,9.76
2018-01-12T13:20:18.762Z,10.05
2018-01-12T13:21:55.402Z,10.25
2018-01-12T13:23:33.593Z,10.11
2018-01-12T13:25:10.279Z,10.18
2018-01-12T13:26:49.547Z,9.91
2018-01-12T13:28:26.600Z,9.64
2018-01-12T13:30:03.361Z,9.38
2018-01-12T13:31:40.273Z,9.05
2018-01-12T13:33:17.316Z,8.91
2018-01-12T13:34:53.775Z,8.70
2018-01-12T13:36:30.729Z,8.92
2018-01-12T13:38:07.229Z,8.96
2018-01-12T13:39:43.601Z,9.07
2018-01-12T13:41:19.932Z,9.32
2018-01-12T13:42:56.842Z,9.89
2018-01-12T13:44:33.167Z,10.20
2018-01-12T13:46:10.109Z,10.35
2018-01-12T13:47:47.241Z,10.43
2018-01-12T13:49:24.130Z,10.60
2018-01-12T13:51:00.781Z,10.43
2018-01-12T13:54:12.563Z,9.58
2018-01-12T13:55:49.907Z,9.41
2018-01-12T13:57:26.293Z,9.40
2018-01-12T13:59:03.446Z,9.64
2018-01-12T14:00:39.877Z,9.59
2018-01-12T14:02:16.718Z,9.31
2018-01-12T14:03:53.008Z,9.02
2018-01-12T14:05:29.402Z,8.90
2018-01-12T14:07:05.800Z,8.83
2018-01-12T14:08:42.614Z,8.90
2018-01-12T14:10:18.950Z,8.89
2018-01-12T14:11:55.300Z,9.04
2018-01-12T14:13:31.610Z,9.26
2018-01-12T14:15:08.744Z,9.44
2018-01-12T14:16:45.967Z,9.67
2018-01-12T14:18:23.769Z,9.55
2018-01-12T14:20:00.138Z,9.54
2018-01-12T14:21:36.794Z,9.29
2018-01-12T14:23:13.961Z,9.08
2018-01-12T14:24:50.314Z,8.92
2018-01-12T14:26:26.759Z,8.86
2018-01-12T14:28:03.549Z,9.03
2018-01-12T14:29:40.557Z,9.34
2018-01-12T14:31:20.362Z,9.77
2018-01-12T14:32:57.589Z,9.88
2018-01-12T14:34:34.203Z,9.86
2018-01-12T14:36:14.957Z,9.95
2018-01-12T14:37:51.311Z,9.97
2018-01-12T14:39:30.040Z,10.00
2018-01-12T14:41:07.161Z,9.89
2018-01-12T14:42:48.381Z,9.91
2018-01-12T14:44:26.029Z,9.94
2018-01-12T14:46:02.711Z,10.00
2018-01-12T14:47:39.150Z,10.35
2018-01-12T14:49:15.654Z,10.62
2018-01-12T14:50:52.277Z,10.56
2018-01-12T14:52:29.174Z,10.35
2018-01-12T14:54:05.465Z,9.97
2018-01-12T14:55:48.301Z,9.96
2018-01-12T14:57:26.922Z,9.82
2018-01-12T14:59:07.074Z,9.83
2018-01-12T15:00:46.137Z,9.55
2018-01-12T15:02:25.867Z,9.38
2018-01-12T15:04:02.714Z,9.25
2018-01-12T15:05:39.002Z,9.24
2018-01-12T15:07:15.296Z,9.15
2018-01-12T15:08:51.666Z,9.10
2018-01-12T15:10:42.391Z,9.00
2018-01-12T15:12:18.754Z,9.08
2018-01-12T15:13:55.180Z,9.65
2018-01-12T15:15:31.853Z,10.09
2018-01-12T15:17:08.615Z,10.20
2018-01-12T15:18:45.945Z,10.20
2018-01-12T15:20:23.295Z,10.27
2018-01-12T15:22:00.696Z,10.75
2018-01-12T15:23:37.541Z,10.88
2018-01-12T15:25:14.921Z,10.74
2018-01-12T15:26:51.266Z,10.83
2018-01-12T15:28:27.824Z,11.04
2018-01-12T15:30:04.602Z,11.22
2018-01-12T15:31:42.542Z,11.06
2018-01-12T15:33:19.718Z,10.81
2018-01-12T15:34:57.227Z,10.99
2018-01-12T15:36:33.689Z,11.01
2018-01-12T15:38:10.177Z,11.21
2018-01-12T15:39:47.342Z,11.14
2018-01-12T15:41:24.804Z,11.50
2018-01-12T15:43:01.201Z,11.59
2018-01-12T15:44:37.597Z,11.66
2018-01-12T15:46:14.167Z,11.17
2018-01-12T15:47:51.033Z,10.84
2018-01-12T15:49:27.496Z,10.33
2018-01-12T15:51:03.901Z,10.10
2018-01-12T15:52:41.185Z,9.73
2018-01-12T15:54:17.888Z,9.56
2018-01-12T15:55:58.174Z,9.45
2018-01-12T15:57:34.596Z,9.43
2018-01-12T15:59:11.058Z,9.39
2018-01-12T16:00:49.039Z,9.76
2018-01-12T16:02:26.216Z,10.38
2018-01-12T16:04:02.648Z,10.74
2018-01-12T16:05:39.829Z,10.78
2018-01-12T16:07:16.539Z,10.44
2018-01-12T16:08:53.680Z,10.19
2018-01-12T16:10:30.250Z,10.18
2018-01-12T16:12:06.777Z,10.14
2018-01-12T16:13:43.830Z,10.01
2018-01-12T16:15:21.363Z,10.54
2018-01-12T16:16:59.672Z,10.88
2018-01-12T16:18:36.043Z,11.01
2018-01-12T16:20:12.852Z,10.98
2018-01-12T16:21:49.205Z,10.95
2018-01-12T16:23:25.623Z,10.78
2018-01-12T16:25:02.154Z,10.35
2018-01-12T16:26:38.451Z,10.17
2018-01-12T16:28:15.720Z,10.15
2018-01-12T16:29:52.807Z,10.36
2018-01-12T16:31:30.350Z,10.35
2018-01-12T16:33:06.660Z,10.38
2018-01-12T16:34:43.045Z,10.85
2018-01-12T16:36:19.510Z,11.04
2018-01-12T16:37:56.299Z,11.34
2018-01-12T16:39:32.669Z,11.33
2018-01-12T16:41:09.362Z,11.01
2018-01-12T16:42:45.644Z,10.39
2018-01-12T16:44:22.570Z,10.25
2018-01-12T16:45:59.047Z,10.27
2018-01-12T16:47:35.844Z,10.02
2018-01-12T16:49:13.069Z,9.63
2018-01-12T16:50:49.888Z,9.45
2018-01-12T16:52:26.376Z,9.28
2018-01-12T16:54:03.555Z,9.13
2018-01-12T16:55:39.916Z,9.13
2018-01-12T16:57:17.389Z,9.23
2018-01-12T16:58:54.608Z,9.29
2018-01-12T17:00:31.158Z,9.38
2018-01-12T17:02:07.955Z,9.35
2018-01-12T17:03:45.371Z,9.28
2018-01-12T17:05:21.684Z,9.19
2018-01-12T17:06:58.734Z,9.03
2018-01-12T17:08:35.103Z,9.12
2018-01-12T17:10:11.898Z,9.03
2018-01-12T17:11:48.282Z,8.94
2018-01-12T17:13:25.528Z,8.90
2018-01-12T17:15:02.091Z,8.88
2018-01-12T17:16:38.929Z,8.83
2018-01-12T17:18:15.794Z,8.70
2018-01-12T17:19:52.198Z,8.70
2018-01-12T17:21:29.371Z,8.84
2018-01-12T17:23:05.962Z,8.98
2018-01-12T17:24:42.389Z,9.06
2018-01-12T17:26:18.837Z,9.14
2018-01-12T17:27:55.074Z,9.32
2018-01-12T17:29:31.716Z,9.44
2018-01-12T17:31:08.116Z,9.37
2018-01-12T17:32:44.474Z,9.62
2018-01-12T17:34:21.482Z,9.77
2018-01-12T17:35:58.082Z,10.09
2018-01-12T17:37:41.846Z,10.04
2018-01-12T17:39:18.170Z,9.76
2018-01-12T17:40:54.546Z,9.66
2018-01-12T17:42:31.109Z,9.73
2018-01-12T17:44:08.587Z,9.75
2018-01-12T17:45:47.533Z,10.06
2018-01-12T17:47:24.184Z,10.40
2018-01-12T17:49:01.263Z,10.43
2018-01-12T17:50:38.444Z,10.08
2018-01-12T17:52:14.817Z,9.99
2018-01-12T17:53:51.270Z,9.89
2018-01-12T17:55:27.993Z,9.73
2018-01-12T17:57:04.471Z,9.87
2018-01-12T17:58:40.834Z,10.30
2018-01-12T18:00:19.327Z,10.75
2018-01-12T18:01:56.103Z,10.93
2018-01-12T18:03:34.249Z,10.98
2018-01-12T18:05:10.664Z,11.08
2018-01-12T18:06:46.989Z,11.16
2018-01-12T18:08:23.702Z,10.85
2018-01-12T18:10:00.098Z,10.40
2018-01-12T18:11:36.542Z,10.27
2018-01-12T18:13:13.243Z,10.09
2018-01-12T18:14:49.894Z,10.15
2018-01-12T18:16:26.669Z,10.65
2018-01-12T18:18:03.092Z,11.03
2018-01-12T18:19:40.214Z,11.03
2018-01-12T18:21:16.835Z,10.95
2018-01-12T18:22:54.206Z,11.04
2018-01-12T18:24:31.410Z,10.77
2018-01-12T18:26:07.813Z,10.35
2018-01-12T18:27:44.539Z,10.20
2018-01-12T18:29:21.667Z,10.60
2018-01-12T18:30:58.287Z,10.53
2018-01-12T18:32:35.727Z,10.88
2018-01-12T18:34:13.069Z,11.15
2018-01-12T18:35:49.446Z,11.32
2018-01-12T18:37:25.826Z,11.34
2018-01-12T18:39:02.148Z,11.34
2018-01-12T18:40:39.439Z,11.39
2018-01-12T18:42:16.583Z,11.01
2018-01-12T18:43:53.623Z,11.01
2018-01-12T18:45:30.297Z,10.58
2018-01-12T18:47:07.449Z,10.21
2018-01-12T18:48:44.100Z,9.89
2018-01-12T18:50:23.106Z,9.78
2018-01-12T18:51:59.427Z,9.94
2018-01-12T18:53:36.455Z,9.82
2018-01-12T18:55:12.867Z,9.67
2018-01-12T18:56:50.848Z,9.63
2018-01-12T18:58:28.587Z,9.77
2018-01-12T19:00:06.549Z,9.80
2018-01-12T19:01:43.395Z,9.51
2018-01-12T19:03:20.752Z,9.44
2018-01-12T19:04:57.144Z,9.59
2018-01-12T19:06:34.918Z,9.60
2018-01-12T19:08:11.463Z,9.48
2018-01-12T19:11:17.920Z,9.37
2018-01-12T19:12:54.980Z,9.36
2018-01-12T19:14:31.464Z,9.40
2018-01-12T19:16:08.400Z,9.51
2018-01-12T19:17:44.941Z,9.69
2018-01-12T19:19:21.729Z,9.65
2018-01-12T19:20:59.184Z,9.46
2018-01-12T19:22:35.860Z,9.41
2018-01-12T19:24:13.152Z,9.23
2018-01-12T19:25:49.918Z,9.04
2018-01-12T19:27:28.010Z,8.95
2018-01-12T19:29:04.695Z,9.01
2018-01-12T19:30:42.142Z,9.09
2018-01-12T19:32:20.388Z,9.26
2018-01-12T19:33:56.985Z,9.22
2018-01-12T19:35:33.646Z,9.13
2018-01-12T19:37:10.393Z,9.10
2018-01-12T19:38:47.609Z,9.10
2018-01-12T19:40:24.849Z,9.08
2018-01-12T19:42:01.360Z,9.09
2018-01-12T19:43:38.214Z,9.11
2018-01-12T19:45:19.337Z,9.18
2018-01-12T19:46:56.370Z,9.22
2018-01-12T19:48:32.866Z,9.21
2018-01-12T19:50:09.291Z,9.21
2018-01-12T19:51:46.239Z,9.20
2018-01-12T19:53:22.732Z,9.34
2018-01-12T19:54:59.233Z,9.53
2018-01-12T19:56:35.673Z,9.75
2018-01-12T19:58:16.940Z,9.88
2018-01-12T19:59:54.735Z,9.93
2018-01-12T20:01:32.006Z,9.84
2018-01-12T20:03:08.628Z,9.71
2018-01-12T20:04:45.413Z,9.68
2018-01-12T20:06:22.692Z,9.69
2018-01-12T20:07:59.206Z,9.98
2018-01-12T20:09:35.698Z,10.27
2018-01-12T20:11:13.398Z,10.38
2018-01-12T20:12:49.827Z,10.34
2018-01-12T20:14:34.587Z,10.22
2018-01-12T20:16:11.117Z,10.24
2018-01-12T20:17:49.399Z,10.22
2018-01-12T20:19:26.014Z,10.17
2018-01-12T20:21:02.572Z,10.21
2018-01-12T20:22:41.469Z,10.25
2018-01-12T20:24:18.316Z,10.55
2018-01-12T20:25:54.838Z,10.79
2018-01-12T20:27:31.395Z,10.48
2018-01-12T20:29:07.922Z,10.44
2018-01-12T20:30:54.900Z,10.95
2018-01-12T20:32:31.632Z,11.17
2018-01-12T20:34:08.779Z,11.42
2018-01-12T20:35:45.490Z,11.45
2018-01-12T20:37:23.002Z,11.48
2018-01-12T20:39:00.591Z,11.02
2018-01-12T20:40:37.142Z,10.67
2018-01-12T20:42:15.026Z,10.35
2018-01-12T20:43:51.486Z,10.08
2018-01-12T20:45:28.522Z,9.79
2018-01-12T20:47:05.111Z,9.71
2018-01-12T20:48:42.008Z,9.83
2018-01-12T20:50:18.958Z,9.75
2018-01-12T20:51:55.788Z,9.95
2018-01-12T20:53:32.461Z,10.51
2018-01-12T20:55:08.908Z,10.72
2018-01-12T20:56:45.687Z,11.05
2018-01-12T20:58:22.655Z,11.22
2018-01-12T20:59:59.689Z,11.40
2018-01-12T21:01:36.576Z,11.43
2018-01-12T21:03:13.100Z,11.49
2018-01-12T21:04:50.401Z,11.42
2018-01-12T21:06:28.047Z,11.30
2018-01-12T21:08:04.597Z,11.23
2018-01-12T21:09:41.088Z,11.02
2018-01-12T21:11:17.617Z,11.02
2018-01-12T21:12:54.494Z,10.90
2018-01-12T21:14:31.158Z,10.60
2018-01-12T21:16:07.960Z,10.38
2018-01-12T21:17:44.452Z,10.21
2018-01-12T21:19:21.613Z,10.17
2018-01-12T21:20:58.131Z,10.10
2018-01-12T21:22:38.512Z,10.30
2018-01-12T21:24:15.509Z,10.22
2018-01-12T21:25:52.724Z,10.17
2018-01-12T21:27:29.319Z,9.95
2018-01-12T21:29:10.047Z,10.08
2018-01-12T21:30:47.312Z,10.10
2018-01-12T21:32:23.806Z,10.03
2018-01-12T21:34:00.313Z,10.09